createdAt,value
2023-04-28T00:04:39.853Z,7.90
2023-04-28T00:09:42.696Z,7.97
2023-04-28T00:14:45.463Z,7.57
2023-04-28T00:19:49.904Z,6.88
2023-04-28T00:24:52.763Z,7.93
2023-04-28T00:29:55.803Z,8.52
2023-04-28T00:35:00.200Z,8.27
2023-04-28T00:40:03.220Z,7.97
2023-04-28T00:45:07.657Z,8.48
2023-04-28T00:50:12.122Z,9.32
2023-04-28T00:55:16.900Z,8.77
2023-04-28T01:00:19.731Z,8.55
2023-04-28T01:05:26.499Z,9.55
2023-04-28T01:10:29.550Z,8.38
2023-04-28T01:15:36.543Z,8.02
2023-04-28T01:20:40.847Z,7.90
2023-04-28T01:25:45.932Z,8.40
2023-04-28T01:30:48.741Z,8.20
2023-04-28T01:35:51.595Z,8.43
2023-04-28T01:40:58.572Z,7.85
2023-04-28T01:46:01.635Z,8.25
2023-04-28T01:51:04.849Z,8.23
2023-04-28T01:56:09.284Z,8.50
2023-04-28T02:01:12.247Z,8.40
2023-04-28T02:06:15.709Z,7.78
2023-04-28T02:11:25.214Z,7.57
2023-04-28T02:16:37.768Z,7.65
2023-04-28T02:21:49.407Z,7.35
2023-04-28T02:26:53.730Z,8.20
2023-04-28T02:31:56.754Z,7.70
2023-04-28T02:36:59.542Z,7.38
2023-04-28T02:42:05.378Z,7.60
2023-04-28T02:47:08.389Z,8.27
2023-04-28T02:52:11.660Z,8.15
2023-04-28T02:57:15.983Z,7.80
2023-04-28T03:02:20.688Z,7.65
2023-04-28T03:07:24.068Z,7.70
2023-04-28T03:12:32.646Z,8.40
2023-04-28T03:17:36.617Z,7.65
2023-04-28T03:22:39.568Z,7.93
2023-04-28T03:27:46.485Z,7.28
2023-04-28T03:32:52.428Z,6.75
2023-04-28T03:37:55.476Z,7.28
2023-04-28T03:43:03.983Z,7.18
2023-04-28T03:48:12.601Z,6.68
2023-04-28T03:53:15.686Z,6.72
2023-04-28T04:03:39.811Z,6.95
2023-04-28T04:08:43.108Z,6.43
2023-04-28T04:13:47.290Z,7.35
2023-04-28T04:18:55.530Z,5.75
2023-04-28T04:24:10.936Z,5.90
2023-04-28T04:29:15.700Z,5.80
2023-04-28T04:34:18.844Z,5.40
2023-04-28T04:39:22.415Z,5.35
2023-04-28T04:44:26.797Z,5.38
2023-04-28T04:49:30.434Z,5.90
2023-04-28T04:54:33.314Z,5.75
2023-04-28T04:59:37.469Z,5.30
2023-04-28T05:04:45.186Z,5.13
2023-04-28T05:09:50.354Z,5.40
2023-04-28T05:14:54.645Z,5.90
2023-04-28T05:19:58.099Z,5.43
2023-04-28T05:25:01.189Z,5.35
2023-04-28T05:30:08.664Z,5.13
2023-04-28T05:35:15.168Z,4.70
2023-04-28T05:40:18.266Z,4.80
2023-04-28T05:45:22.698Z,4.30
2023-04-28T05:50:26.504Z,4.55
2023-04-28T06:08:09.153Z,4.28
2023-04-28T06:13:14.578Z,3.50
2023-04-28T06:18:19.577Z,3.97
2023-04-28T06:23:22.960Z,4.07
2023-04-28T06:28:27.014Z,3.83
2023-04-28T06:33:31.360Z,3.60
2023-04-28T06:38:40.202Z,4.85
2023-04-28T06:43:52.592Z,3.75
2023-04-28T06:49:10.867Z,3.50
2023-04-28T06:54:20.960Z,3.67
2023-04-28T06:59:38.611Z,3.20
2023-04-28T07:04:46.122Z,3.00
2023-04-28T07:09:53.601Z,3.35
2023-04-28T07:15:02.270Z,3.03
2023-04-28T07:20:07.943Z,3.33
2023-04-28T07:25:11.326Z,2.88
2023-04-28T07:30:26.442Z,3.20
2023-04-28T07:35:32.191Z,2.63
2023-04-28T07:40:35.017Z,2.92
2023-04-28T07:45:39.949Z,2.88
2023-04-28T07:50:44.155Z,3.08
2023-04-28T07:55:46.988Z,2.75
2023-04-28T08:00:49.775Z,3.05
2023-04-28T08:05:54.066Z,3.00
2023-04-28T08:10:57.249Z,3.05
2023-04-28T08:16:01.094Z,2.88
2023-04-28T08:21:05.607Z,3.33
2023-04-28T08:26:10.207Z,3.17
2023-04-28T08:31:13.090Z,2.63
2023-04-28T08:36:18.050Z,3.25
2023-04-28T08:41:21.816Z,3.03
2023-04-28T08:46:28.484Z,3.28
2023-04-28T08:51:37.056Z,3.40
2023-04-28T08:56:40.402Z,3.45
2023-04-28T09:01:48.790Z,3.30
2023-04-28T09:06:53.212Z,3.63
2023-04-28T09:11:58.266Z,3.00
2023-04-28T09:17:02.085Z,3.17
2023-04-28T09:22:24.684Z,3.47
2023-04-28T09:27:30.765Z,3.33
2023-04-28T09:32:36.380Z,3.75
2023-04-28T09:37:43.541Z,3.28
2023-04-28T09:42:47.830Z,3.47
2023-04-28T09:47:50.709Z,3.40
2023-04-28T09:52:59.284Z,3.70
2023-04-28T09:58:10.939Z,4.32
2023-04-28T10:03:16.588Z,3.90
2023-04-28T10:08:21.705Z,3.60
2023-04-28T10:13:25.471Z,3.95
2023-04-28T10:18:29.756Z,4.15
2023-04-28T10:23:53.566Z,3.88
2023-04-28T10:28:56.693Z,4.30
2023-04-28T10:34:23.009Z,4.22
2023-04-28T10:39:27.134Z,4.13
2023-04-28T10:44:45.973Z,4.10
2023-04-28T10:50:11.455Z,4.43
2023-04-28T10:55:32.996Z,4.20
2023-04-28T11:00:56.403Z,4.22
2023-04-28T11:06:20.629Z,4.68
2023-04-28T11:11:26.820Z,4.57
2023-04-28T11:16:29.774Z,4.05
2023-04-28T11:21:36.745Z,4.40
2023-04-28T11:26:41.517Z,4.50
2023-04-28T11:31:51.267Z,4.05
2023-04-28T11:36:55.013Z,4.82
2023-04-28T11:42:00.743Z,4.57
2023-04-28T11:47:05.214Z,4.50
2023-04-28T11:52:09.833Z,4.47
2023-04-28T11:57:21.109Z,4.65
2023-04-28T12:02:32.008Z,4.70
2023-04-28T12:07:43.682Z,4.32
2023-04-28T12:12:52.458Z,4.43
2023-04-28T12:17:57.848Z,4.35
2023-04-28T12:23:02.842Z,4.68
2023-04-28T12:28:10.803Z,4.60
2023-04-28T12:33:24.515Z,4.18
2023-04-28T12:38:29.466Z,4.60
2023-04-28T12:43:35.498Z,4.30
2023-04-28T12:48:39.515Z,4.20
2023-04-28T12:53:42.369Z,5.10
2023-04-28T12:58:46.637Z,4.60
2023-04-28T13:03:51.884Z,4.25
2023-04-28T13:08:56.029Z,5.30
2023-04-28T13:14:04.144Z,4.53
2023-04-28T13:19:10.681Z,4.63
2023-04-28T13:24:39.014Z,4.88
2023-04-28T13:29:43.737Z,4.78
2023-04-28T13:34:58.833Z,4.78
2023-04-28T13:40:04.359Z,4.85
2023-04-28T13:45:09.413Z,4.90
2023-04-28T13:50:12.727Z,5.82
2023-04-28T13:55:21.177Z,5.25
2023-04-28T14:00:25.624Z,5.15
2023-04-28T14:05:49.720Z,5.47
2023-04-28T14:10:53.334Z,5.97
2023-04-28T14:16:07.662Z,5.30
2023-04-28T14:21:13.674Z,5.28
2023-04-28T14:26:23.937Z,5.53
2023-04-28T14:32:12.080Z,6.05
2023-04-28T14:37:17.718Z,5.75
2023-04-28T14:42:23.366Z,5.70
2023-04-28T14:47:28.926Z,6.10
2023-04-28T14:52:32.584Z,6.10
2023-04-28T14:57:38.043Z,6.30
2023-04-28T15:02:42.471Z,6.55
2023-04-28T15:07:45.554Z,6.57
2023-04-28T15:12:51.010Z,6.43
2023-04-28T15:18:00.597Z,6.50
2023-04-28T15:23:03.664Z,6.70
2023-04-28T15:28:11.852Z,7.43
2023-04-28T15:33:18.690Z,6.63
2023-04-28T15:38:22.977Z,6.75
2023-04-28T15:43:28.286Z,7.60
2023-04-28T15:48:43.062Z,7.95
2023-04-28T15:54:23.281Z,6.78
2023-04-28T16:05:39.161Z,6.80
2023-04-28T16:10:48.195Z,7.35
2023-04-28T16:34:37.203Z,6.75
2023-04-28T16:39:58.967Z,7.28
2023-04-28T16:45:01.842Z,7.53
2023-04-28T16:50:05.035Z,7.93
2023-04-28T16:55:10.469Z,8.00
2023-04-28T17:00:15.125Z,8.15
2023-04-28T17:05:18.054Z,7.88
2023-04-28T17:10:22.803Z,8.73
2023-04-28T17:15:27.156Z,9.52
2023-04-28T17:20:30.154Z,8.73
2023-04-28T17:26:44.471Z,11.02
2023-04-28T17:32:03.762Z,8.82
2023-04-28T17:44:21.309Z,9.50
2023-04-28T17:49:25.690Z,8.70
2023-04-28T17:54:31.765Z,8.95
2023-04-28T17:59:37.041Z,8.98
2023-04-28T18:04:56.859Z,9.40
2023-04-28T18:10:51.348Z,10.23
2023-04-28T18:23:36.554Z,11.02
2023-04-28T18:28:39.758Z,11.23
2023-04-28T18:33:45.947Z,12.15
2023-04-28T18:38:49.335Z,13.55
2023-04-28T18:43:53.768Z,13.70
2023-04-28T18:49:00.213Z,14.63
2023-04-28T18:54:08.314Z,20.15
2023-04-28T18:59:13.778Z,13.93
2023-04-28T19:04:18.891Z,14.98
2023-04-28T19:09:25.855Z,14.98
2023-04-28T19:14:31.644Z,16.73
2023-04-28T19:19:40.803Z,19.80
2023-04-28T19:24:48.631Z,17.88
2023-04-28T19:29:53.181Z,16.30
2023-04-28T19:34:56.683Z,18.65
2023-04-28T19:40:00.101Z,19.52
2023-04-28T19:45:07.364Z,20.05
2023-04-28T19:50:11.599Z,19.48
2023-04-28T19:55:18.286Z,19.08
2023-04-28T20:00:24.273Z,20.92
2023-04-28T20:05:27.167Z,22.30
2023-04-28T20:10:30.359Z,23.00
2023-04-28T20:15:34.767Z,23.45
2023-04-28T20:20:37.784Z,23.52
2023-04-28T20:25:41.360Z,22.42
2023-04-28T20:30:45.848Z,22.58
2023-04-28T20:35:48.936Z,22.10
2023-04-28T20:40:52.329Z,20.02
2023-04-28T20:45:57.764Z,23.15
2023-04-28T20:51:03.637Z,22.42
2023-04-28T20:56:06.748Z,21.50
2023-04-28T21:01:11.146Z,19.55
2023-04-28T21:06:13.980Z,20.40
2023-04-28T21:11:17.794Z,21.13
2023-04-28T21:16:22.467Z,19.17
2023-04-28T21:21:25.356Z,18.77
2023-04-28T21:26:28.214Z,18.15
2023-04-28T21:31:32.448Z,18.20
2023-04-28T21:36:35.340Z,18.27
2023-04-28T21:41:38.557Z,18.42
2023-04-28T21:46:42.800Z,16.52
2023-04-28T22:05:38.284Z,16.48
2023-04-28T22:10:41.269Z,16.10
2023-04-28T22:15:44.118Z,16.05
2023-04-28T22:20:50.073Z,13.40
2023-04-28T22:25:53.336Z,14.57
2023-04-28T22:30:56.114Z,12.43
2023-04-28T22:36:00.377Z,13.13
2023-04-28T22:41:03.302Z,12.90
2023-04-28T22:46:06.183Z,10.90
2023-04-28T22:51:10.387Z,12.05
2023-04-28T22:56:13.251Z,11.63
2023-04-28T23:01:16.265Z,12.43
2023-04-28T23:06:20.543Z,11.60
2023-04-28T23:11:24.140Z,9.98
2023-04-28T23:16:29.926Z,10.52
2023-04-28T23:21:34.156Z,10.18
2023-04-28T23:26:37.886Z,10.48
2023-04-28T23:31:40.783Z,10.82
2023-04-28T23:36:50.631Z,11.27
2023-04-28T23:41:57.005Z,10.73
2023-04-28T23:47:02.784Z,9.63
2023-04-28T23:52:07.671Z,10.50
2023-04-28T23:57:10.663Z,10.68
